sensor_id;sensor_type;location;lat;lon;timestamp;pressure;altitude;pressure_sealevel;temperature;humidity
61682;BME280;47577;43.610;25.010;2024-03-08T00:00:09;100841.34;;;3.89;100.00
61682;BME280;47577;43.610;25.010;2024-03-08T00:02:41;100847.50;;;3.99;100.00
61682;BME280;47577;43.610;25.010;2024-03-08T00:05:08;100857.13;;;4.09;99.96
61682;BME280;47577;43.610;25.010;2024-03-08T00:07:37;100842.25;;;4.03;99.62
61682;BME280;47577;43.610;25.010;2024-03-08T00:10:04;100844.88;;;4.03;99.89
61682;BME280;47577;43.610;25.010;2024-03-08T00:12:30;100843.97;;;4.03;100.00
61682;BME280;47577;43.610;25.010;2024-03-08T00:14:56;100839.56;;;4.14;100.00
61682;BME280;47577;43.610;25.010;2024-03-08T00:17:21;100845.72;;;4.19;99.57
61682;BME280;47577;43.610;25.010;2024-03-08T00:19:50;100845.75;;;4.16;97.89
61682;BME280;47577;43.610;25.010;2024-03-08T00:22:19;100840.47;;;4.07;98.91
61682;BME280;47577;43.610;25.010;2024-03-08T00:24:45;100845.75;;;4.16;98.68
61682;BME280;47577;43.610;25.010;2024-03-08T00:27:11;100847.47;;;4.19;98.15
61682;BME280;47577;43.610;25.010;2024-03-08T00:29:37;100843.97;;;4.15;98.32
61682;BME280;47577;43.610;25.010;2024-03-08T00:32:04;100842.22;;;4.14;98.87
61682;BME280;47577;43.610;25.010;2024-03-08T00:34:30;100845.75;;;4.18;97.59
61682;BME280;47577;43.610;25.010;2024-03-08T00:36:57;100840.44;;;4.19;98.41
61682;BME280;47577;43.610;25.010;2024-03-08T00:39:23;100844.84;;;4.16;97.84
61682;BME280;47577;43.610;25.010;2024-03-08T00:41:49;100837.84;;;4.09;98.10
61682;BME280;47577;43.610;25.010;2024-03-08T00:44:18;100819.41;;;3.90;98.71
61682;BME280;47577;43.610;25.010;2024-03-08T00:46:43;100845.72;;;4.02;98.45
61682;BME280;47577;43.610;25.010;2024-03-08T00:49:09;100848.34;;;3.99;98.57
61682;BME280;47577;43.610;25.010;2024-03-08T00:51:34;100845.72;;;3.96;97.55
61682;BME280;47577;43.610;25.010;2024-03-08T00:54:01;100843.97;;;4.08;97.93
61682;BME280;47577;43.610;25.010;2024-03-08T00:56:26;100839.56;;;3.85;98.07
61682;BME280;47577;43.610;25.010;2024-03-08T00:58:52;100829.03;;;3.79;98.60
61682;BME280;47577;43.610;25.010;2024-03-08T01:01:19;100851.00;;;3.79;98.00
61682;BME280;47577;43.610;25.010;2024-03-08T01:03:44;100829.06;;;3.74;98.44
61682;BME280;47577;43.610;25.010;2024-03-08T01:06:10;100836.06;;;3.83;98.98
61682;BME280;47577;43.610;25.010;2024-03-08T01:08:37;100829.94;;;3.73;98.19
61682;BME280;47577;43.610;25.010;2024-03-08T01:11:04;100834.31;;;3.88;97.44
61682;BME280;47577;43.610;25.010;2024-03-08T01:13:32;100831.69;;;3.88;97.74
61682;BME280;47577;43.610;25.010;2024-03-08T01:15:58;100829.06;;;3.82;97.30
61682;BME280;47577;43.610;25.010;2024-03-08T01:18:24;100824.69;;;3.76;98.22
61682;BME280;47577;43.610;25.010;2024-03-08T01:20:49;100827.31;;;3.86;98.26
61682;BME280;47577;43.610;25.010;2024-03-08T01:23:15;100829.94;;;3.89;97.35
61682;BME280;47577;43.610;25.010;2024-03-08T01:25:40;100829.94;;;3.92;97.13
61682;BME280;47577;43.610;25.010;2024-03-08T01:28:06;100829.94;;;3.87;97.35
61682;BME280;47577;43.610;25.010;2024-03-08T01:30:32;100836.97;;;3.94;97.71
61682;BME280;47577;43.610;25.010;2024-03-08T01:33:00;100823.81;;;3.96;97.51
61682;BME280;47577;43.610;25.010;2024-03-08T01:35:26;100827.31;;;3.93;96.67
61682;BME280;47577;43.610;25.010;2024-03-08T01:37:52;100832.56;;;4.01;96.89
61682;BME280;47577;43.610;25.010;2024-03-08T01:40:18;100842.25;;;4.03;96.30
61682;BME280;47577;43.610;25.010;2024-03-08T01:42:44;100836.97;;;4.00;96.10
61682;BME280;47577;43.610;25.010;2024-03-08T01:45:10;100854.50;;;4.05;96.74
61682;BME280;47577;43.610;25.010;2024-03-08T01:47:36;100836.97;;;3.93;96.48
61682;BME280;47577;43.610;25.010;2024-03-08T01:50:02;100837.81;;;3.95;97.67
61682;BME280;47577;43.610;25.010;2024-03-08T01:52:32;100851.88;;;3.97;97.46
61682;BME280;47577;43.610;25.010;2024-03-08T01:55:03;100853.63;;;4.01;96.95
61682;BME280;47577;43.610;25.010;2024-03-08T01:57:34;100843.09;;;3.82;97.86
61682;BME280;47577;43.610;25.010;2024-03-08T02:00:01;100838.72;;;3.95;97.91
61682;BME280;47577;43.610;25.010;2024-03-08T02:02:32;100838.72;;;3.95;97.99
61682;BME280;47577;43.610;25.010;2024-03-08T02:04:58;100837.84;;;3.98;97.94
61682;BME280;47577;43.610;25.010;2024-03-08T02:07:23;100841.38;;;3.97;97.91
61682;BME280;47577;43.610;25.010;2024-03-08T02:09:49;100838.72;;;3.91;97.18
61682;BME280;47577;43.610;25.010;2024-03-08T02:12:14;100836.09;;;3.89;97.44
61682;BME280;47577;43.610;25.010;2024-03-08T02:14:40;100840.47;;;3.98;97.81
61682;BME280;47577;43.610;25.010;2024-03-08T02:17:06;100832.59;;;3.82;97.14
61682;BME280;47577;43.610;25.010;2024-03-08T02:19:31;100850.13;;;3.91;98.09
61682;BME280;47577;43.610;25.010;2024-03-08T02:21:58;100839.56;;;3.87;97.39
61682;BME280;47577;43.610;25.010;2024-03-08T02:24:24;100844.84;;;3.88;98.01
61682;BME280;47577;43.610;25.010;2024-03-08T02:26:51;100846.59;;;3.81;97.75
61682;BME280;47577;43.610;25.010;2024-03-08T02:29:16;100843.09;;;3.76;98.20
61682;BME280;47577;43.610;25.010;2024-03-08T02:31:42;100857.09;;;3.75;97.72
61682;BME280;47577;43.610;25.010;2024-03-08T02:34:08;100850.97;;;3.73;98.96
61682;BME280;47577;43.610;25.010;2024-03-08T02:36:34;100838.69;;;3.64;98.44
61682;BME280;47577;43.610;25.010;2024-03-08T02:39:03;100855.34;;;3.70;98.28
61682;BME280;47577;43.610;25.010;2024-03-08T02:41:30;100850.94;;;3.64;99.51
61682;BME280;47577;43.610;25.010;2024-03-08T02:43:56;100847.47;;;3.68;98.88
61682;BME280;47577;43.610;25.010;2024-03-08T02:46:21;100850.09;;;3.66;99.81
61682;BME280;47577;43.610;25.010;2024-03-08T02:48:47;100854.47;;;3.78;98.79
61682;BME280;47577;43.610;25.010;2024-03-08T02:51:12;100847.47;;;3.83;99.59
61682;BME280;47577;43.610;25.010;2024-03-08T02:53:41;100849.22;;;3.81;99.45
61682;BME280;47577;43.610;25.010;2024-03-08T02:56:08;100852.72;;;3.71;99.77
61682;BME280;47577;43.610;25.010;2024-03-08T02:58:38;100849.22;;;3.83;99.81
61682;BME280;47577;43.610;25.010;2024-03-08T03:01:03;100850.09;;;3.82;98.62
61682;BME280;47577;43.610;25.010;2024-03-08T03:03:29;100851.88;;;3.88;98.87
61682;BME280;47577;43.610;25.010;2024-03-08T03:05:55;100844.84;;;3.94;99.09
61682;BME280;47577;43.610;25.010;2024-03-08T03:08:21;100849.22;;;3.98;98.70
61682;BME280;47577;43.610;25.010;2024-03-08T03:10:47;100843.97;;;3.92;98.70
61682;BME280;47577;43.610;25.010;2024-03-08T03:13:12;100855.38;;;3.99;98.92
61682;BME280;47577;43.610;25.010;2024-03-08T03:15:39;100848.34;;;3.98;98.82
61682;BME280;47577;43.610;25.010;2024-03-08T03:18:07;100859.75;;;3.98;99.17
61682;BME280;47577;43.610;25.010;2024-03-08T03:20:33;100851.88;;;3.97;100.00
61682;BME280;47577;43.610;25.010;2024-03-08T03:23:02;100845.72;;;4.06;98.99
61682;BME280;47577;43.610;25.010;2024-03-08T03:25:28;100849.22;;;4.06;99.00
61682;BME280;47577;43.610;25.010;2024-03-08T03:27:59;100846.59;;;4.03;99.90
61682;BME280;47577;43.610;25.010;2024-03-08T03:30:25;100847.50;;;4.03;99.24
61682;BME280;47577;43.610;25.010;2024-03-08T03:33:01;100850.13;;;4.03;99.73
61682;BME280;47577;43.610;25.010;2024-03-08T03:35:32;100859.75;;;4.06;100.00
61682;BME280;47577;43.610;25.010;2024-03-08T03:37:58;100850.13;;;3.96;100.00
61682;BME280;47577;43.610;25.010;2024-03-08T03:40:42;100846.63;;;3.95;100.00
61682;BME280;47577;43.610;25.010;2024-03-08T03:43:08;100857.13;;;4.03;99.39
61682;BME280;47577;43.610;25.010;2024-03-08T03:45:35;100861.53;;;4.02;100.00
61682;BME280;47577;43.610;25.010;2024-03-08T03:48:05;100851.00;;;3.96;99.72
61682;BME280;47577;43.610;25.010;2024-03-08T03:50:32;100837.84;;;3.84;99.98
61682;BME280;47577;43.610;25.010;2024-03-08T03:53:00;100854.50;;;3.88;100.00
61682;BME280;47577;43.610;25.010;2024-03-08T03:55:26;100858.88;;;3.95;99.69
61682;BME280;47577;43.610;25.010;2024-03-08T03:57:52;100856.25;;;3.99;100.00
61682;BME280;47577;43.610;25.010;2024-03-08T04:00:18;100858.88;;;3.92;100.00
61682;BME280;47577;43.610;25.010;2024-03-08T04:02:44;100865.91;;;4.00;100.00
61682;BME280;47577;43.610;25.010;2024-03-08T04:05:10;100867.66;;;4.01;100.00
61682;BME280;47577;43.610;25.010;2024-03-08T04:07:37;100861.50;;;3.96;100.00
61682;BME280;47577;43.610;25.010;2024-03-08T04:10:04;100864.16;;;3.99;100.00
61682;BME280;47577;43.610;25.010;2024-03-08T04:12:34;100865.91;;;3.91;99.35
61682;BME280;47577;43.610;25.010;2024-03-08T04:15:00;100866.75;;;3.89;100.00
61682;BME280;47577;43.610;25.010;2024-03-08T04:17:25;100873.81;;;3.94;99.67
61682;BME280;47577;43.610;25.010;2024-03-08T04:19:51;100864.16;;;3.82;99.34
61682;BME280;47577;43.610;25.010;2024-03-08T04:22:17;100874.66;;;3.93;99.34
61682;BME280;47577;43.610;25.010;2024-03-08T04:24:44;100877.28;;;3.93;98.62
61682;BME280;47577;43.610;25.010;2024-03-08T04:27:10;100875.50;;;3.74;99.22
61682;BME280;47577;43.610;25.010;2024-03-08T04:29:36;100869.38;;;3.73;100.00
61682;BME280;47577;43.610;25.010;2024-03-08T04:32:05;100882.53;;;3.90;100.00
61682;BME280;47577;43.610;25.010;2024-03-08T04:34:32;100882.56;;;3.78;100.00
61682;BME280;47577;43.610;25.010;2024-03-08T04:36:57;100885.16;;;3.75;99.77
61682;BME280;47577;43.610;25.010;2024-03-08T04:39:24;100888.66;;;3.67;100.00
61682;BME280;47577;43.610;25.010;2024-03-08T04:41:50;100883.41;;;3.75;100.00
61682;BME280;47577;43.610;25.010;2024-03-08T04:44:16;100897.44;;;3.71;100.00
61682;BME280;47577;43.610;25.010;2024-03-08T04:46:43;100894.81;;;3.66;100.00
61682;BME280;47577;43.610;25.010;2024-03-08T04:49:09;100897.44;;;3.68;100.00
61682;BME280;47577;43.610;25.010;2024-03-08T04:51:37;100903.59;;;3.76;100.00
61682;BME280;47577;43.610;25.010;2024-03-08T04:54:02;100900.94;;;3.72;99.64
61682;BME280;47577;43.610;25.010;2024-03-08T04:56:30;100898.31;;;3.70;99.85
61682;BME280;47577;43.610;25.010;2024-03-08T04:58:55;100907.97;;;3.68;98.49
61682;BME280;47577;43.610;25.010;2024-03-08T05:01:21;100906.19;;;3.65;99.08
61682;BME280;47577;43.610;25.010;2024-03-08T05:03:47;100918.47;;;3.68;99.88
61682;BME280;47577;43.610;25.010;2024-03-08T05:06:16;100930.75;;;3.71;99.94
61682;BME280;47577;43.610;25.010;2024-03-08T05:08:41;100924.59;;;3.64;99.44
61682;BME280;47577;43.610;25.010;2024-03-08T05:11:07;100934.25;;;3.68;98.34
61682;BME280;47577;43.610;25.010;2024-03-08T05:13:34;100933.38;;;3.63;99.21
61682;BME280;47577;43.610;25.010;2024-03-08T05:16:03;100947.38;;;3.59;99.69
61682;BME280;47577;43.610;25.010;2024-03-08T05:18:28;100941.22;;;3.57;99.13
61682;BME280;47577;43.610;25.010;2024-03-08T05:20:54;100941.25;;;3.64;98.81
61682;BME280;47577;43.610;25.010;2024-03-08T05:23:20;100948.22;;;3.55;98.69
61682;BME280;47577;43.610;25.010;2024-03-08T05:25:46;100946.47;;;3.52;99.49
61682;BME280;47577;43.610;25.010;2024-03-08T05:28:14;100960.47;;;3.53;100.00
61682;BME280;47577;43.610;25.010;2024-03-08T05:30:40;100950.84;;;3.50;100.00
61682;BME280;47577;43.610;25.010;2024-03-08T05:33:05;100969.31;;;3.69;98.87
61682;BME280;47577;43.610;25.010;2024-03-08T05:35:31;100969.31;;;3.65;99.27
61682;BME280;47577;43.610;25.010;2024-03-08T05:37:57;100962.22;;;3.49;99.67
61682;BME280;47577;43.610;25.010;2024-03-08T05:40:23;100956.09;;;3.44;99.25
61682;BME280;47577;43.610;25.010;2024-03-08T05:42:49;100970.13;;;3.49;99.00
61682;BME280;47577;43.610;25.010;2024-03-08T05:45:15;100971.91;;;3.53;98.52
61682;BME280;47577;43.610;25.010;2024-03-08T05:47:41;100970.13;;;3.52;98.99
61682;BME280;47577;43.610;25.010;2024-03-08T05:50:07;100978.91;;;3.56;98.91
61682;BME280;47577;43.610;25.010;2024-03-08T05:52:36;100977.13;;;3.55;99.16
61682;BME280;47577;43.610;25.010;2024-03-08T05:55:03;100980.72;;;3.63;99.29
61682;BME280;47577;43.610;25.010;2024-03-08T05:57:32;100981.59;;;3.68;98.19
61682;BME280;47577;43.610;25.010;2024-03-08T05:59:57;100982.44;;;3.64;98.48
61682;BME280;47577;43.610;25.010;2024-03-08T06:02:23;100993.84;;;3.69;97.56
61682;BME280;47577;43.610;25.010;2024-03-08T06:04:48;100998.22;;;3.62;98.21
61682;BME280;47577;43.610;25.010;2024-03-08T06:07:15;100992.09;;;3.62;98.64
61682;BME280;47577;43.610;25.010;2024-03-08T06:09:42;100992.97;;;3.65;98.83
61682;BME280;47577;43.610;25.010;2024-03-08T06:12:10;100985.06;;;3.64;97.63
61682;BME280;47577;43.610;25.010;2024-03-08T06:14:36;100993.03;;;3.75;96.40
61682;BME280;47577;43.610;25.010;2024-03-08T06:17:03;101001.75;;;3.72;96.58
61682;BME280;47577;43.610;25.010;2024-03-08T06:19:31;101008.81;;;3.78;95.82
61682;BME280;47577;43.610;25.010;2024-03-08T06:21:56;101007.94;;;3.74;96.69
61682;BME280;47577;43.610;25.010;2024-03-08T06:24:22;101007.88;;;3.65;96.04
61682;BME280;47577;43.610;25.010;2024-03-08T06:26:47;101012.25;;;3.60;95.74
61682;BME280;47577;43.610;25.010;2024-03-08T06:29:14;101006.09;;;3.52;96.26
61682;BME280;47577;43.610;25.010;2024-03-08T06:31:40;101007.84;;;3.56;96.35
61682;BME280;47577;43.610;25.010;2024-03-08T06:34:06;101021.88;;;3.53;95.15
61682;BME280;47577;43.610;25.010;2024-03-08T06:36:33;101009.59;;;3.54;96.14
61682;BME280;47577;43.610;25.010;2024-03-08T06:39:00;101016.63;;;3.61;95.49
61682;BME280;47577;43.610;25.010;2024-03-08T06:41:25;101010.47;;;3.56;96.13
61682;BME280;47577;43.610;25.010;2024-03-08T06:43:52;101020.16;;;3.60;96.14
61682;BME280;47577;43.610;25.010;2024-03-08T06:46:22;101020.13;;;3.58;95.12
61682;BME280;47577;43.610;25.010;2024-03-08T06:48:47;101026.25;;;3.56;95.65
61682;BME280;47577;43.610;25.010;2024-03-08T06:51:14;101022.78;;;3.60;95.38
61682;BME280;47577;43.610;25.010;2024-03-08T06:53:40;101035.94;;;3.71;95.27
61682;BME280;47577;43.610;25.010;2024-03-08T06:56:06;101029.84;;;3.75;94.99
61682;BME280;47577;43.610;25.010;2024-03-08T06:58:33;101034.28;;;3.87;95.22
61682;BME280;47577;43.610;25.010;2024-03-08T07:00:58;101034.22;;;3.79;95.59
61682;BME280;47577;43.610;25.010;2024-03-08T07:03:25;101040.41;;;3.84;95.78
61682;BME280;47577;43.610;25.010;2024-03-08T07:05:52;101031.66;;;3.93;96.00
61682;BME280;47577;43.610;25.010;2024-03-08T07:08:18;101034.28;;;3.93;95.73
61682;BME280;47577;43.610;25.010;2024-03-08T07:10:44;101038.69;;;3.98;95.71
61682;BME280;47577;43.610;25.010;2024-03-08T07:13:10;101045.72;;;3.99;96.60
61682;BME280;47577;43.610;25.010;2024-03-08T07:15:36;101041.38;;;4.09;96.29
61682;BME280;47577;43.610;25.010;2024-03-08T07:18:02;101033.44;;;4.05;95.42
61682;BME280;47577;43.610;25.010;2024-03-08T07:20:28;101048.41;;;4.10;94.41
61682;BME280;47577;43.610;25.010;2024-03-08T07:22:54;101037.84;;;4.06;94.37
61682;BME280;47577;43.610;25.010;2024-03-08T07:25:20;101045.75;;;4.09;94.36
61682;BME280;47577;43.610;25.010;2024-03-08T07:27:52;101058.03;;;4.07;93.12
61682;BME280;47577;43.610;25.010;2024-03-08T07:30:19;101046.59;;;4.03;94.21
61682;BME280;47577;43.610;25.010;2024-03-08T07:33:04;101062.38;;;4.01;94.05
61682;BME280;47577;43.610;25.010;2024-03-08T07:35:30;101050.13;;;4.00;94.93
61682;BME280;47577;43.610;25.010;2024-03-08T07:37:59;101059.75;;;3.95;93.85
61682;BME280;47577;43.610;25.010;2024-03-08T07:40:25;101064.16;;;4.02;93.59
61682;BME280;47577;43.610;25.010;2024-03-08T07:42:52;101065.03;;;4.05;93.63
61682;BME280;47577;43.610;25.010;2024-03-08T07:45:17;101056.25;;;3.99;94.53
61682;BME280;47577;43.610;25.010;2024-03-08T07:47:43;101070.31;;;4.08;94.42
61682;BME280;47577;43.610;25.010;2024-03-08T07:50:09;101059.78;;;4.09;96.15
61682;BME280;47577;43.610;25.010;2024-03-08T07:52:35;101067.69;;;4.09;95.48
61682;BME280;47577;43.610;25.010;2024-03-08T07:55:02;101072.97;;;4.17;94.69
61682;BME280;47577;43.610;25.010;2024-03-08T07:57:29;101065.13;;;4.26;95.15
61682;BME280;47577;43.610;25.010;2024-03-08T07:59:55;101066.03;;;4.36;94.51
61682;BME280;47577;43.610;25.010;2024-03-08T08:02:21;101067.78;;;4.40;95.16
61682;BME280;47577;43.610;25.010;2024-03-08T08:04:46;101063.38;;;4.40;95.57
61682;BME280;47577;43.610;25.010;2024-03-08T08:07:12;101074.78;;;4.38;94.39
61682;BME280;47577;43.610;25.010;2024-03-08T08:09:40;101079.19;;;4.37;93.40
61682;BME280;47577;43.610;25.010;2024-03-08T08:12:08;101068.63;;;4.27;94.18
61682;BME280;47577;43.610;25.010;2024-03-08T08:14:38;101071.25;;;4.25;93.15
61682;BME280;47577;43.610;25.010;2024-03-08T08:17:04;101077.38;;;4.26;92.55
61682;BME280;47577;43.610;25.010;2024-03-08T08:19:30;101076.53;;;4.33;94.32
61682;BME280;47577;43.610;25.010;2024-03-08T08:21:57;101081.81;;;4.42;95.57
61682;BME280;47577;43.610;25.010;2024-03-08T08:24:23;101055.47;;;4.31;94.98
61682;BME280;47577;43.610;25.010;2024-03-08T08:26:49;101079.19;;;4.44;95.37
61682;BME280;47577;43.610;25.010;2024-03-08T08:29:15;101081.84;;;4.57;95.62
61682;BME280;47577;43.610;25.010;2024-03-08T08:31:41;101075.72;;;4.58;95.46
61682;BME280;47577;43.610;25.010;2024-03-08T08:34:09;101077.47;;;4.69;95.41
61682;BME280;47577;43.610;25.010;2024-03-08T08:36:35;101073.97;;;4.65;93.42
61682;BME280;47577;43.610;25.010;2024-03-08T08:39:02;101067.81;;;4.54;93.82
61682;BME280;47577;43.610;25.010;2024-03-08T08:41:28;101073.97;;;4.61;94.55
61682;BME280;47577;43.610;25.010;2024-03-08T08:43:54;101078.34;;;4.55;93.60
61682;BME280;47577;43.610;25.010;2024-03-08T08:46:20;101080.97;;;4.51;95.00
61682;BME280;47577;43.610;25.010;2024-03-08T08:48:47;101080.97;;;4.54;93.80
61682;BME280;47577;43.610;25.010;2024-03-08T08:51:12;101073.06;;;4.65;95.96
61682;BME280;47577;43.610;25.010;2024-03-08T08:53:42;101071.34;;;4.68;95.58
61682;BME280;47577;43.610;25.010;2024-03-08T08:56:08;101083.66;;;4.83;95.21
61682;BME280;47577;43.610;25.010;2024-03-08T08:58:34;101066.97;;;4.76;92.45
61682;BME280;47577;43.610;25.010;2024-03-08T09:01:00;101083.66;;;4.83;94.22
61682;BME280;47577;43.610;25.010;2024-03-08T09:03:27;101080.13;;;4.90;93.53
61682;BME280;47577;43.610;25.010;2024-03-08T09:05:53;101068.72;;;4.87;93.00
61682;BME280;47577;43.610;25.010;2024-03-08T09:08:19;101080.13;;;4.93;91.92
61682;BME280;47577;43.610;25.010;2024-03-08T09:10:45;101078.38;;;4.89;93.57
61682;BME280;47577;43.610;25.010;2024-03-08T09:13:12;101088.03;;;4.97;92.56
61682;BME280;47577;43.610;25.010;2024-03-08T09:15:38;101078.38;;;4.99;91.88
61682;BME280;47577;43.610;25.010;2024-03-08T09:18:06;101078.38;;;4.91;90.85
61682;BME280;47577;43.610;25.010;2024-03-08T09:20:32;101068.69;;;4.74;90.93
61682;BME280;47577;43.610;25.010;2024-03-08T09:22:57;101077.50;;;4.72;92.96
61682;BME280;47577;43.610;25.010;2024-03-08T09:25:23;101076.59;;;4.73;93.53
61682;BME280;47577;43.610;25.010;2024-03-08T09:27:49;101081.00;;;4.80;92.16
61682;BME280;47577;43.610;25.010;2024-03-08T09:30:15;101081.03;;;4.89;93.05
61682;BME280;47577;43.610;25.010;2024-03-08T09:32:44;101074.84;;;4.86;92.60
61682;BME280;47577;43.610;25.010;2024-03-08T09:35:09;101066.06;;;4.78;91.95
61682;BME280;47577;43.610;25.010;2024-03-08T09:37:36;101072.22;;;4.78;92.67
61682;BME280;47577;43.610;25.010;2024-03-08T09:40:03;101073.97;;;4.87;93.14
61682;BME280;47577;43.610;25.010;2024-03-08T09:42:37;101088.94;;;4.92;92.29
61682;BME280;47577;43.610;25.010;2024-03-08T09:45:09;101096.81;;;4.85;91.17
61682;BME280;47577;43.610;25.010;2024-03-08T09:47:39;101098.59;;;4.83;92.13
61682;BME280;47577;43.610;25.010;2024-03-08T09:50:07;101084.50;;;4.74;92.41
61682;BME280;47577;43.610;25.010;2024-03-08T09:52:38;101097.69;;;4.85;91.83
61682;BME280;47577;43.610;25.010;2024-03-08T09:55:08;101088.91;;;4.85;93.59
61682;BME280;47577;43.610;25.010;2024-03-08T09:57:37;101097.72;;;4.91;91.80
61682;BME280;47577;43.610;25.010;2024-03-08T10:00:06;101088.91;;;4.85;91.73
61682;BME280;47577;43.610;25.010;2024-03-08T10:02:50;101095.94;;;4.86;92.16
61682;BME280;47577;43.610;25.010;2024-03-08T10:05:17;101084.53;;;4.88;91.46
61682;BME280;47577;43.610;25.010;2024-03-08T10:07:44;101093.31;;;4.90;91.82
61682;BME280;47577;43.610;25.010;2024-03-08T10:10:09;101095.94;;;4.92;92.25
61682;BME280;47577;43.610;25.010;2024-03-08T10:12:37;101102.09;;;4.92;91.54
61682;BME280;47577;43.610;25.010;2024-03-08T10:15:08;101092.41;;;4.79;91.71
61682;BME280;47577;43.610;25.010;2024-03-08T10:17:35;101081.88;;;4.84;91.60
61682;BME280;47577;43.610;25.010;2024-03-08T10:20:00;101087.16;;;4.88;91.59
61682;BME280;47577;43.610;25.010;2024-03-08T10:22:26;101102.09;;;4.92;91.71
61682;BME280;47577;43.610;25.010;2024-03-08T10:24:52;101089.78;;;4.84;91.76
61682;BME280;47577;43.610;25.010;2024-03-08T10:27:17;101089.81;;;4.96;91.75
61682;BME280;47577;43.610;25.010;2024-03-08T10:29:47;101096.81;;;4.99;91.25
61682;BME280;47577;43.610;25.010;2024-03-08T10:32:13;101091.56;;;5.05;90.15
61682;BME280;47577;43.610;25.010;2024-03-08T10:34:38;101095.97;;;5.12;91.46
61682;BME280;47577;43.610;25.010;2024-03-08T10:37:05;101083.66;;;5.11;91.40
61682;BME280;47577;43.610;25.010;2024-03-08T10:39:37;101080.13;;;5.03;90.25
61682;BME280;47577;43.610;25.010;2024-03-08T10:42:04;101081.91;;;4.99;90.02
61682;BME280;47577;43.610;25.010;2024-03-08T10:47:00;101088.03;;;5.07;90.24
61682;BME280;47577;43.610;25.010;2024-03-08T10:49:37;101094.19;;;5.03;88.11
61682;BME280;47577;43.610;25.010;2024-03-08T10:52:05;101088.91;;;5.03;89.24
61682;BME280;47577;43.610;25.010;2024-03-08T10:54:34;101080.13;;;4.98;88.83
61682;BME280;47577;43.610;25.010;2024-03-08T10:57:05;101075.72;;;5.00;88.24
61682;BME280;47577;43.610;25.010;2024-03-08T10:59:31;101058.16;;;4.79;87.88
61682;BME280;47577;43.610;25.010;2024-03-08T11:01:59;101079.25;;;4.87;89.19
61682;BME280;47577;43.610;25.010;2024-03-08T11:04:25;101070.47;;;4.92;90.75
61682;BME280;47577;43.610;25.010;2024-03-08T11:06:52;101074.00;;;5.01;89.02
61682;BME280;47577;43.610;25.010;2024-03-08T11:09:35;101063.44;;;4.94;89.45
61682;BME280;47577;43.610;25.010;2024-03-08T11:14:49;101062.53;;;4.95;89.41
61682;BME280;47577;43.610;25.010;2024-03-08T11:17:44;101068.72;;;5.02;90.18
61682;BME280;47577;43.610;25.010;2024-03-08T11:20:14;101049.38;;;4.97;90.58
61682;BME280;47577;43.610;25.010;2024-03-08T11:22:59;101060.78;;;5.11;90.82
61682;BME280;47577;43.610;25.010;2024-03-08T11:25:41;101065.19;;;5.19;90.14
61682;BME280;47577;43.610;25.010;2024-03-08T11:28:22;101051.09;;;5.20;91.02
61682;BME280;47577;43.610;25.010;2024-03-08T11:33:30;101048.47;;;5.20;90.23
61682;BME280;47577;43.610;25.010;2024-03-08T11:38:32;101044.09;;;5.22;91.23
61682;BME280;47577;43.610;25.010;2024-03-08T11:40:58;101049.38;;;5.25;93.61
61682;BME280;47577;43.610;25.010;2024-03-08T11:43:24;101059.00;;;5.37;91.44
61682;BME280;47577;43.610;25.010;2024-03-08T11:45:50;101053.72;;;5.38;90.03
61682;BME280;47577;43.610;25.010;2024-03-08T11:48:15;101054.59;;;5.37;90.26
61682;BME280;47577;43.610;25.010;2024-03-08T11:50:41;101042.31;;;5.30;89.75
61682;BME280;47577;43.610;25.010;2024-03-08T11:53:08;101053.75;;;5.37;89.70
61682;BME280;47577;43.610;25.010;2024-03-08T11:55:34;101051.09;;;5.30;88.89
61682;BME280;47577;43.610;25.010;2024-03-08T11:58:02;101045.84;;;5.29;90.38
61682;BME280;47577;43.610;25.010;2024-03-08T12:00:28;101044.06;;;5.39;90.28
61682;BME280;47577;43.610;25.010;2024-03-08T12:03:05;101041.41;;;5.48;90.39
61682;BME280;47577;43.610;25.010;2024-03-08T12:05:32;101038.78;;;5.43;90.31
61682;BME280;47577;43.610;25.010;2024-03-08T12:07:59;101043.13;;;5.55;88.98
61682;BME280;47577;43.610;25.010;2024-03-08T12:10:25;101050.19;;;5.50;89.50
61682;BME280;47577;43.610;25.010;2024-03-08T12:12:56;101048.41;;;5.58;89.03
61682;BME280;47577;43.610;25.010;2024-03-08T12:15:25;101037.84;;;5.54;88.85
61682;BME280;47577;43.610;25.010;2024-03-08T12:17:52;101040.50;;;5.50;88.77
61682;BME280;47577;43.610;25.010;2024-03-08T12:20:22;101044.00;;;5.59;89.14
61682;BME280;47577;43.610;25.010;2024-03-08T12:22:49;101040.47;;;5.58;88.64
61682;BME280;47577;43.610;25.010;2024-03-08T12:25:17;101043.13;;;5.57;89.83
61682;BME280;47577;43.610;25.010;2024-03-08T12:27:44;101045.75;;;5.60;90.33
61682;BME280;47577;43.610;25.010;2024-03-08T12:30:23;101043.09;;;5.66;90.84
61682;BME280;47577;43.610;25.010;2024-03-08T12:32:59;101045.75;;;5.67;90.34
61682;BME280;47577;43.610;25.010;2024-03-08T12:35:27;101039.56;;;5.72;90.60
61682;BME280;47577;43.610;25.010;2024-03-08T12:37:54;101040.44;;;5.72;89.22
61682;BME280;47577;43.610;25.010;2024-03-08T12:40:30;101039.56;;;5.72;89.75
61682;BME280;47577;43.610;25.010;2024-03-08T12:43:00;101041.34;;;5.63;90.80
61682;BME280;47577;43.610;25.010;2024-03-08T12:45:26;101045.81;;;5.47;90.12
61682;BME280;47577;43.610;25.010;2024-03-08T12:47:53;101026.47;;;5.41;91.20
61682;BME280;47577;43.610;25.010;2024-03-08T12:50:23;101036.13;;;5.54;91.54
61682;BME280;47577;43.610;25.010;2024-03-08T12:52:50;101043.13;;;5.60;92.57
61682;BME280;47577;43.610;25.010;2024-03-08T12:55:16;101027.34;;;5.44;92.36
61682;BME280;47577;43.610;25.010;2024-03-08T12:57:43;101037.91;;;5.44;92.77
61682;BME280;47577;43.610;25.010;2024-03-08T13:00:10;101048.44;;;5.46;92.37